FALE

King Shaka International Airport

Durban, South Africa
TAF FALE 182200Z 1900/2006 20020G30KT 9999 SCT009 BKN011 OVC016 TX24/1904Z TN22/2004Z TEMPO 1900/2004 4000 SHRA BKN010 SCT025TCU BECMG 2002/2004 20015KT
Issued Valid From Valid To
Jan-18 @ 22:00 UTC
(5 hours ago)
Jan-19 @ 00:00 UTC
(3 hours ago)
Jan-20 @ 06:00 UTC
(-1 days ago)
Jan-19 @ 00:00 to Jan-20 @ 02:00
TAF FALE 182200Z 1900/2006 20020G30KT 9999 SCT009 BKN011 OVC016 TX24/1904Z TN22/2004Z
Wind Visibility Clouds
200° at 20 knots
 Gusting to 30 knots
10,000+ meters
  • Scattered at 900' AGL
  • Broken at 1,100' AGL
  • Overcast at 1,600' AGL
Temporary Jan-19 @ 00:00 to Jan-20 @ 04:00
TEMPO 1900/2004 4000 SHRA BKN010 SCT025TCU
Visibility Clouds Conditions
4,007 meters
  • Broken at 1,000' AGL
  • Scattered at 2,500' AGL
  • Rain
Becoming Jan-20 @ 02:00 to Jan-20 @ 06:00
BECMG 2002/2004 20015KT
Wind Visibility Clouds
200° at 15 knots 10,000+ meters
  • Scattered at 900' AGL
  • Broken at 1,100' AGL
  • Overcast at 1,600' AGL
TAF FALE 182200Z 1900/2006 20020G30KT 9999 SCT009 BKN011 OVC016 TX24/1904Z TN22/2004Z TEMPO 1900/2004 4000 SHRA BKN010 SCT025TCU BECMG 2002/2004 20015KT
Issued Jan-18 @ 22:00 UTC
(5 hours ago)
Valid From Jan-19 @ 00:00 UTC
(3 hours ago)
Valid To Jan-20 @ 06:00 UTC
(-1 days ago)
Jan-19 @ 00:00 - Jan-20 @ 02:00
Wind Visibility
200° at 20 knots
 Gusting to 30 knots
10,000+ meters
Clouds
  • Scattered at 900' AGL
  • Broken at 1,100' AGL
  • Overcast at 1,600' AGL
Temporary Jan-19 @ 00:00 - Jan-20 @ 04:00
Clouds
  • Broken at 1,000' AGL
  • Scattered at 2,500' AGL
Conditions
  • Rain
Becoming Jan-20 @ 02:00 - Jan-20 @ 06:00
Wind Visibility
200° at 15 knots 10,000+ meters
Clouds
  • Scattered at 900' AGL
  • Broken at 1,100' AGL
  • Overcast at 1,600' AGL